This is the latest recevied weather packets stored in our database for station/object N4HAC. If no packets are shown the sender has not sent any weather packets the latest 1 day(s).
| Time | Temp. | Humidity | Pressure | Rain* | Wind** | Luminosity | Snow |
|---|---|---|---|---|---|---|---|
| 1836274662 | 18.33° C | 99% | 1012.9 hPa | 0 mm | 0 m/s | 0 W/m² | - |
| 1836274515 | 18.33° C | 99% | 1013.3 hPa | 0 mm | 0.45 m/s, 210° | 0 W/m² | - |
| 1836274360 | 18.33° C | 99% | 1013.1 hPa | 0 mm | 0.45 m/s, 170° | 0 W/m² | - |
| 1836274214 | 18.33° C | 99% | 1012.9 hPa | 0 mm | 0 m/s | 0 W/m² | - |
| 1836274059 | 18.33° C | 99% | 1012.9 hPa | 0 mm | 0.45 m/s, 154° | 0 W/m² | - |
| 1778037068 | 20.56° C | 49% | 1004.9 hPa | 0 mm | 1.79 m/s, 141° | 0 W/m² | - |
| 1778036767 | 20.56° C | 48% | 1004.9 hPa | 0 mm | 2.68 m/s, 117° | 0 W/m² | - |
| 1778036463 | 20.56° C | 48% | 1005 hPa | 0 mm | 3.13 m/s, 140° | 0 W/m² | - |
| 1778036160 | 20.56° C | 48% | 1005.2 hPa | 0 mm | 1.34 m/s, 76° | 0 W/m² | - |
| 1778035856 | 20.56° C | 48% | 1005 hPa | 0 mm | 1.34 m/s, 125° | 0 W/m² | - |
| 1778035554 | 21.11° C | 48% | 1005 hPa | 0 mm | 2.24 m/s, 134° | 0 W/m² | - |
| 1778035250 | 20.56° C | 48% | 1005.2 hPa | 0 mm | 1.79 m/s, 134° | 0 W/m² | - |
| 1778034945 | 20.56° C | 47% | 1005.1 hPa | 0 mm | 2.68 m/s, 145° | 0 W/m² | - |
| 1778034643 | 20.56° C | 48% | 1005 hPa | 0 mm | 4.02 m/s, 137° | 0 W/m² | - |
| 1778034341 | 20.56° C | 47% | 1005.2 hPa | 0 mm | 2.24 m/s, 157° | 0 W/m² | - |
| 1778034038 | 20.56° C | 47% | 1005.1 hPa | 0 mm | 3.13 m/s, 136° | 0 W/m² | - |
| 1778033735 | 21.11° C | 46% | 1005.1 hPa | 0 mm | 4.02 m/s, 139° | 0 W/m² | - |
| 1778033433 | 21.67° C | 45% | 1005.1 hPa | 0 mm | 3.13 m/s, 151° | 0 W/m² | - |
| 1778033130 | 21.11° C | 46% | 1005.1 hPa | 0 mm | 3.13 m/s, 133° | 0 W/m² | - |
| 1778032827 | 20.56° C | 46% | 1005.1 hPa | 0 mm | 4.02 m/s, 136° | 0 W/m² | - |
| 1778032525 | 21.11° C | 45% | 1005.1 hPa | 0 mm | 4.02 m/s, 136° | 0 W/m² | - |
| 1778032221 | 20.56° C | 46% | 1005.2 hPa | 0 mm | 3.58 m/s, 149° | 0 W/m² | - |
| 1778031919 | 21.11° C | 45% | 1005.2 hPa | 0 mm | 3.13 m/s, 134° | 0 W/m² | - |
| 1778031615 | 21.11° C | 44% | 1005.2 hPa | 0 mm | 2.68 m/s, 141° | 0 W/m² | - |
| 1778031313 | 21.11° C | 44% | 1005.2 hPa | 0 mm | 2.68 m/s, 134° | 0 W/m² | - |
* Rain latest hour (hover to see other rain measurements)
** Current wind speed in m/s (hover to see current wind gust speed)